Time;durP1;ratioP1;P1;durP2;ratioP2;P2;SDS_P1;SDS_P2;PMS_P1;PMS_P2;Temp;Humidity;BMP_temperature;BMP_pressure;BME280_temperature;BME280_humidity;BME280_pressure;Samples;Min_cycle;Max_cycle;Signal;HPM_P1;HPM_P2
2022/10/23 00:01:32;;;;;;;38.67;22.05;;;;;;;12.54;100.00;100200.13;1669360;84;25576;-71
2022/10/23 00:04:07;;;;;;;41.28;23.05;;;;;;;12.55;100.00;100196.31;1664733;84;25478;-71
2022/10/23 00:06:35;;;;;;;38.85;22.35;;;;;;;12.55;100.00;100201.73;1671216;84;27444;-71
2022/10/23 00:09:06;;;;;;;39.30;22.22;;;;;;;12.56;100.00;100199.81;1682455;84;25538;-70
2022/10/23 00:11:34;;;;;;;41.28;23.57;;;;;;;12.55;100.00;100200.38;1697264;84;25491;-71
2022/10/23 00:14:05;;;;;;;40.98;22.95;;;;;;;12.56;100.00;100202.52;1686442;84;25550;-71
2022/10/23 00:16:33;;;;;;;38.23;22.02;;;;;;;12.56;100.00;100207.38;1693901;84;25491;-71
2022/10/23 00:19:00;;;;;;;36.00;21.55;;;;;;;12.56;100.00;100211.45;1685993;84;27074;-71
2022/10/23 00:21:28;;;;;;;38.20;21.80;;;;;;;12.54;100.00;100208.27;1682594;83;26066;-71
2022/10/23 00:23:55;;;;;;;42.10;21.45;;;;;;;12.54;100.00;100207.48;1699192;84;25448;-70
2022/10/23 00:26:22;;;;;;;40.88;21.15;;;;;;;12.53;100.00;100210.73;1702428;83;26161;-70
2022/10/23 00:28:52;;;;;;;38.17;21.40;;;;;;;12.54;100.00;100207.48;1700663;83;25396;-70
2022/10/23 00:31:22;;;;;;;35.38;20.12;;;;;;;12.54;100.00;100213.70;1683358;84;27335;-71
2022/10/23 00:33:50;;;;;;;41.45;21.80;;;;;;;12.54;100.00;100205.55;1700744;84;25800;-71
2022/10/23 00:36:19;;;;;;;33.70;20.97;;;;;;;12.52;100.00;100211.30;1693047;83;25350;-71
2022/10/23 00:38:47;;;;;;;43.00;20.52;;;;;;;12.52;100.00;100214.02;1672555;84;25555;-70
2022/10/23 00:41:19;;;;;;;35.33;19.70;;;;;;;12.52;100.00;100214.59;1699352;83;25346;-70
2022/10/23 00:44:19;;;;;;;42.65;22.00;;;;;;;12.52;100.00;100224.08;1699046;84;27359;-70
2022/10/23 00:46:48;;;;;;;37.50;18.65;;;;;;;12.51;100.00;100221.12;1683120;84;25761;-70
2022/10/23 00:49:15;;;;;;;38.23;20.08;;;;;;;12.49;100.00;100218.73;1701046;84;27140;-70
2022/10/23 00:51:50;;;;;;;33.53;19.40;;;;;;;12.51;100.00;100222.48;1700189;83;25489;-70
2022/10/23 00:54:21;;;;;;;39.20;21.93;;;;;;;12.50;100.00;100220.90;1687175;84;25382;-70
2022/10/23 00:56:49;;;;;;;35.98;19.17;;;;;;;12.48;100.00;100221.76;1691435;83;27357;-71
2022/10/23 00:59:16;;;;;;;36.75;21.68;;;;;;;12.48;100.00;100224.47;1678319;85;25516;-70
2022/10/23 01:01:43;;;;;;;36.90;20.72;;;;;;;12.47;100.00;100229.11;1678287;85;25475;-70
2022/10/23 01:04:10;;;;;;;32.70;19.85;;;;;;;12.47;100.00;100237.81;1678274;85;25453;-70
2022/10/23 01:06:58;;;;;;;36.00;20.60;;;;;;;12.47;100.00;100233.75;1696769;84;25554;-70
2022/10/23 01:09:43;;;;;;;35.08;20.50;;;;;;;12.47;100.00;100235.11;1697130;83;27373;-69
2022/10/23 01:12:38;;;;;;;34.90;21.07;;;;;;;12.47;100.00;100239.96;1707043;83;25599;-69
2022/10/23 01:15:38;;;;;;;38.73;20.57;;;;;;;12.47;100.00;100243.24;1698965;84;25379;-70
2022/10/23 01:18:32;;;;;;;37.60;21.65;;;;;;;12.47;100.00;100244.60;1730620;82;26305;-70
2022/10/23 01:21:11;;;;;;;37.53;21.62;;;;;;;12.47;100.00;100250.02;1734247;82;25609;-70
2022/10/23 01:23:53;;;;;;;37.35;21.20;;;;;;;12.46;100.00;100253.30;1723246;82;27398;-70
2022/10/23 01:26:25;;;;;;;36.58;21.85;;;;;;;12.46;100.00;100260.09;1738099;82;25323;-71
2022/10/23 01:29:25;;;;;;;41.40;22.40;;;;;;;12.47;100.00;100259.52;1709847;82;25449;-72
2022/10/23 01:32:09;;;;;;;44.27;24.60;;;;;;;12.47;100.00;100260.87;1713947;82;25542;-70
2022/10/23 01:34:42;;;;;;;41.08;23.92;;;;;;;12.48;100.00;100262.45;1731685;82;25503;-71
2022/10/23 01:37:14;;;;;;;37.55;22.80;;;;;;;12.48;100.00;100266.52;1738156;82;27428;-71
2022/10/23 01:39:46;;;;;;;41.13;23.80;;;;;;;12.49;100.00;100268.13;1738162;82;25507;-71
2022/10/23 01:42:19;;;;;;;40.25;23.60;;;;;;;12.49;100.00;100268.91;1715880;82;25330;-73
2022/10/23 01:44:58;;;;;;;39.98;23.62;;;;;;;12.50;100.00;100264.31;1703610;83;25674;-70
2022/10/23 01:47:28;;;;;;;38.40;24.02;;;;;;;12.51;100.00;100269.95;1705376;82;25501;-70
2022/10/23 01:49:57;;;;;;;42.43;24.63;;;;;;;12.51;100.00;100269.95;1704523;83;28139;-70
2022/10/23 01:52:24;;;;;;;43.08;23.27;;;;;;;12.53;100.00;100271.78;1727030;82;25501;-70
2022/10/23 01:54:56;;;;;;;39.83;23.12;;;;;;;12.54;100.00;100265.81;1738173;82;25387;-70
2022/10/23 01:57:27;;;;;;;37.55;22.22;;;;;;;12.54;100.00;100266.60;1738196;82;25504;-70
2022/10/23 02:00:00;;;;;;;48.38;24.63;;;;;;;12.55;100.00;100272.81;1706426;82;25541;-70
2022/10/23 02:02:30;;;;;;;45.80;23.98;;;;;;;12.57;100.00;100274.67;1718985;83;27374;-71
2022/10/23 02:05:15;;;;;;;42.62;23.38;;;;;;;12.57;100.00;100266.53;1737421;82;25357;-71
2022/10/23 02:07:44;;;;;;;42.15;23.73;;;;;;;12.58;100.00;100273.53;1716422;82;25517;-71
2022/10/23 02:10:13;;;;;;;42.98;23.65;;;;;;;12.59;100.00;100277.28;1745973;81;25472;-71
2022/10/23 02:12:55;;;;;;;44.25;23.87;;;;;;;12.60;100.00;100274.00;1747056;80;25333;-71
2022/10/23 02:15:45;;;;;;;44.48;24.27;;;;;;;12.61;100.00;100274.25;1724989;82;27295;-69
2022/10/23 02:18:39;;;;;;;47.05;24.82;;;;;;;12.61;100.00;100278.31;1705253;84;25320;-69
2022/10/23 02:21:13;;;;;;;50.23;25.88;;;;;;;12.62;100.00;100282.64;1705597;83;25386;-71
2022/10/23 02:24:03;;;;;;;49.77;25.70;;;;;;;12.63;100.00;100280.14;1714595;82;26034;-70
2022/10/23 02:26:37;;;;;;;48.98;24.57;;;;;;;12.62;100.00;100284.78;1738239;82;25323;-69
2022/10/23 02:29:13;;;;;;;45.58;23.95;;;;;;;12.64;100.00;100285.82;1739927;82;27380;-70
2022/10/23 02:31:41;;;;;;;44.60;24.98;;;;;;;12.63;100.00;100290.46;1760358;81;25481;-70
2022/10/23 02:34:08;;;;;;;45.55;24.70;;;;;;;12.64;100.00;100289.32;1768019;80;25389;-70
2022/10/23 02:36:37;;;;;;;52.93;26.48;;;;;;;12.64;100.00;100292.61;1758559;81;25535;-70
2022/10/23 02:39:04;;;;;;;47.13;25.23;;;;;;;12.64;100.00;100297.46;1754868;80;25381;-70
2022/10/23 02:41:52;;;;;;;48.92;26.35;;;;;;;12.65;100.00;100304.49;1762349;81;28108;-70
2022/10/23 02:44:55;;;;;;;52.95;25.68;;;;;;;12.66;100.00;100302.57;1719696;83;25904;-70
2022/10/23 02:47:45;;;;;;;49.53;26.55;;;;;;;12.65;100.00;100294.18;1712871;83;25361;-70
2022/10/23 02:50:27;;;;;;;54.30;26.75;;;;;;;12.65;100.00;100303.67;1710866;82;25498;-70
2022/10/23 02:53:12;;;;;;;54.23;26.95;;;;;;;12.67;100.00;100304.17;1716670;82;25670;-70
2022/10/23 02:56:09;;;;;;;48.38;26.25;;;;;;;12.67;100.00;100307.68;1730542;82;28054;-70
2022/10/23 02:58:53;;;;;;;51.95;26.97;;;;;;;12.66;100.00;100314.21;1730215;82;25550;-69
2022/10/23 03:01:24;;;;;;;51.08;27.22;;;;;;;12.66;100.00;100303.36;1707290;82;25365;-69
2022/10/23 03:04:00;;;;;;;53.08;29.85;;;;;;;12.67;100.00;100300.11;1722341;82;25608;-69
2022/10/23 03:06:27;;;;;;;46.28;25.90;;;;;;;12.67;100.00;100304.17;1738379;82;25503;-69
2022/10/23 03:09:02;;;;;;;51.40;27.98;;;;;;;12.68;100.00;100308.47;1712757;83;27968;-69
2022/10/23 03:11:30;;;;;;;48.87;26.85;;;;;;;12.68;100.00;100314.71;1704271;82;25538;-69
2022/10/23 03:13:57;;;;;;;51.53;28.15;;;;;;;12.68;100.00;100307.11;1742705;82;25675;-69
2022/10/23 03:16:25;;;;;;;49.88;28.00;;;;;;;12.68;100.00;100309.28;1716529;82;25659;-69
2022/10/23 03:18:54;;;;;;;51.50;27.77;;;;;;;12.70;100.00;100307.58;1712827;83;25504;-69
2022/10/23 03:21:21;;;;;;;50.67;25.40;;;;;;;12.70;100.00;100307.58;1736363;82;27308;-69
2022/10/23 03:23:48;;;;;;;51.28;29.00;;;;;;;12.69;100.00;100305.44;1754568;81;25922;-70
2022/10/23 03:26:15;;;;;;;52.98;27.35;;;;;;;12.70;100.00;100299.44;1757262;80;25467;-70
2022/10/23 03:28:42;;;;;;;51.10;27.10;;;;;;;12.69;100.00;100297.29;1764192;81;25525;-70
2022/10/23 03:31:10;;;;;;;56.00;29.32;;;;;;;12.70;100.00;100317.08;1729664;82;25373;-70
2022/10/23 03:33:37;;;;;;;47.70;27.37;;;;;;;12.70;100.00;100304.86;1762763;81;27585;-70
2022/10/23 03:36:05;;;;;;;51.88;27.22;;;;;;;12.67;100.00;100309.03;1764975;81;25457;-70
2022/10/23 03:38:32;;;;;;;52.75;27.02;;;;;;;12.68;100.00;100305.21;1744745;82;25319;-70
2022/10/23 03:40:59;;;;;;;55.12;27.65;;;;;;;12.68;100.00;100303.86;1764315;81;25513;-70
2022/10/23 03:43:27;;;;;;;58.00;28.02;;;;;;;12.68;100.00;100313.36;1745536;81;25544;-70
2022/10/23 03:45:57;;;;;;;49.25;27.87;;;;;;;12.70;100.00;100318.43;1746604;81;28056;-70
2022/10/23 03:48:25;;;;;;;51.35;26.25;;;;;;;12.69;100.00;100317.64;1739735;82;27299;-70
2022/10/23 03:50:52;;;;;;;54.27;27.82;;;;;;;12.70;100.00;100318.43;1743153;81;25497;-70
2022/10/23 03:53:19;;;;;;;47.48;27.17;;;;;;;12.69;100.00;100312.22;1750075;81;26047;-70
2022/10/23 03:55:47;;;;;;;48.63;27.55;;;;;;;12.68;100.00;100322.03;1750174;80;25448;-70
2022/10/23 03:58:14;;;;;;;49.03;27.77;;;;;;;12.68;100.00;100320.14;1748482;81;27556;-70
2022/10/23 04:00:41;;;;;;;49.75;26.82;;;;;;;12.70;100.00;100326.58;1765701;80;25498;-70
2022/10/23 04:03:09;;;;;;;52.00;28.20;;;;;;;12.69;100.00;100319.56;1745540;80;25466;-70
2022/10/23 04:05:36;;;;;;;51.48;26.73;;;;;;;12.70;100.00;100329.29;1759409;81;25528;-70
2022/10/23 04:08:04;;;;;;;52.25;28.73;;;;;;;12.69;100.00;100333.92;1768108;80;25532;-70
2022/10/23 04:10:31;;;;;;;52.65;27.40;;;;;;;12.66;100.00;100325.64;1742746;81;27421;-70
2022/10/23 04:12:58;;;;;;;54.85;27.32;;;;;;;12.65;100.00;100330.81;1748453;81;25523;-70
2022/10/23 04:15:26;;;;;;;50.92;26.35;;;;;;;12.64;100.00;100330.59;1763522;80;25437;-70
2022/10/23 04:17:53;;;;;;;47.98;26.45;;;;;;;12.63;100.00;100335.77;1763312;81;26216;-70
2022/10/23 04:20:20;;;;;;;46.28;25.75;;;;;;;12.60;100.00;100337.23;1771462;80;25307;-70
2022/10/23 04:22:47;;;;;;;47.95;27.22;;;;;;;12.57;100.00;100339.22;1771319;80;27342;-70
2022/10/23 04:25:15;;;;;;;51.05;26.30;;;;;;;12.57;100.00;100339.78;1771225;80;25507;-71
2022/10/23 04:27:42;;;;;;;46.98;26.73;;;;;;;12.55;100.00;100344.71;1770715;80;25467;-70
2022/10/23 04:30:11;;;;;;;50.03;26.25;;;;;;;12.54;100.00;100343.14;1757180;80;26110;-70
2022/10/23 04:32:39;;;;;;;54.77;27.35;;;;;;;12.53;100.00;100351.81;1764521;81;25531;-70
2022/10/23 04:35:08;;;;;;;51.80;26.87;;;;;;;12.51;100.00;100348.09;1760754;81;29556;-70
2022/10/23 04:37:36;;;;;;;52.83;28.07;;;;;;;12.53;100.00;100355.88;1771670;80;25476;-70
2022/10/23 04:40:05;;;;;;;49.63;26.23;;;;;;;12.52;100.00;100357.02;1771621;80;25361;-70
2022/10/23 04:42:32;;;;;;;50.03;28.80;;;;;;;12.51;100.00;100360.30;1771732;80;25628;-71
2022/10/23 04:45:00;;;;;;;52.95;27.95;;;;;;;12.51;100.00;100365.73;1762079;80;25490;-73
2022/10/23 04:47:27;;;;;;;54.25;29.15;;;;;;;12.51;100.00;100360.84;1765165;81;27369;-70
2022/10/23 04:49:55;;;;;;;55.75;30.08;;;;;;;12.51;100.00;100369.80;1763557;80;25361;-70
2022/10/23 04:52:22;;;;;;;56.13;27.77;;;;;;;12.51;100.00;100370.33;1748010;82;25406;-70
2022/10/23 04:54:50;;;;;;;47.05;28.57;;;;;;;12.51;100.00;100377.94;1770552;81;25527;-70
2022/10/23 04:57:17;;;;;;;53.98;28.23;;;;;;;12.49;100.00;100381.50;1771525;80;25507;-70
2022/10/23 04:59:44;;;;;;;51.37;29.35;;;;;;;12.50;100.00;100379.04;1745340;80;27290;-70
2022/10/23 05:02:12;;;;;;;49.42;27.75;;;;;;;12.51;100.00;100385.25;1759299;81;25586;-70
2022/10/23 05:04:39;;;;;;;51.83;26.73;;;;;;;12.51;100.00;100379.83;1743576;80;25386;-70
2022/10/23 05:07:06;;;;;;;50.63;28.38;;;;;;;12.50;100.00;100383.11;1761746;80;26123;-70
2022/10/23 05:09:33;;;;;;;50.50;28.85;;;;;;;12.50;100.00;100389.11;1764995;81;25369;-70
2022/10/23 05:12:01;;;;;;;49.98;28.23;;;;;;;12.49;100.00;100393.70;1761682;80;28040;-70
2022/10/23 05:14:28;;;;;;;55.28;29.55;;;;;;;12.49;100.00;100385.57;1758423;80;25455;-70
2022/10/23 05:17:00;;;;;;;63.78;28.65;;;;;;;12.49;100.00;100391.00;1763555;80;25502;-70
2022/10/23 05:19:32;;;;;;;50.38;27.40;;;;;;;12.51;100.00;100395.57;1751545;81;26070;-70
2022/10/23 05:22:01;;;;;;;48.10;28.05;;;;;;;12.49;100.00;100394.28;1746757;81;25312;-70
2022/10/23 05:24:28;;;;;;;53.90;28.83;;;;;;;12.48;100.00;100392.13;1746132;81;27418;-70
2022/10/23 05:26:56;;;;;;;51.53;28.30;;;;;;;12.48;100.00;100398.09;1761327;81;25505;-70
2022/10/23 05:29:23;;;;;;;50.63;29.27;;;;;;;12.45;100.00;100398.19;1751437;80;25490;-70
2022/10/23 05:31:56;;;;;;;53.48;29.05;;;;;;;12.45;100.00;100397.41;1735868;80;25533;-70
2022/10/23 05:34:26;;;;;;;50.15;28.62;;;;;;;12.43;100.00;100399.61;1755788;80;25530;-70
2022/10/23 05:36:54;;;;;;;46.20;29.15;;;;;;;12.43;100.00;100393.65;1773573;80;28036;-70
2022/10/23 05:39:22;;;;;;;48.23;28.25;;;;;;;12.44;100.00;100393.87;1749488;80;25396;-70
2022/10/23 05:41:50;;;;;;;54.77;29.32;;;;;;;12.43;100.00;100396.90;1747983;81;25334;-70
2022/10/23 05:44:17;;;;;;;47.27;28.27;;;;;;;12.40;100.00;100390.20;1767211;81;25563;-70
2022/10/23 05:46:44;;;;;;;52.10;29.85;;;;;;;12.40;100.00;100400.27;1771466;81;25338;-70
2022/10/23 05:49:12;;;;;;;62.83;30.62;;;;;;;12.40;100.00;100401.62;1768016;81;27345;-70
2022/10/23 05:51:40;;;;;;;51.10;29.07;;;;;;;12.40;100.00;100407.05;1757076;81;25630;-69
2022/10/23 05:54:08;;;;;;;53.87;29.30;;;;;;;12.40;100.00;100405.70;1747962;82;25519;-69
2022/10/23 05:56:40;;;;;;;47.53;29.02;;;;;;;12.39;100.00;100404.09;1739166;81;25565;-69
2022/10/23 05:59:08;;;;;;;56.00;29.55;;;;;;;12.39;100.00;100413.02;1736946;82;25522;-69
2022/10/23 06:01:36;;;;;;;50.73;29.12;;;;;;;12.39;100.00;100414.94;1747928;81;27319;-69
2022/10/23 06:04:04;;;;;;;51.70;29.27;;;;;;;12.39;100.00;100418.44;1747814;82;25435;-70
2022/10/23 06:06:31;;;;;;;53.48;29.70;;;;;;;12.37;100.00;100415.25;1747841;82;25469;-70
2022/10/23 06:08:59;;;;;;;53.28;29.80;;;;;;;12.37;100.00;100411.19;1747873;82;25506;-70
2022/10/23 06:11:26;;;;;;;56.65;28.10;;;;;;;12.37;100.00;100419.32;1762264;80;25472;-70
2022/10/23 06:13:53;;;;;;;51.00;29.60;;;;;;;12.36;100.00;100420.45;1743687;82;27944;-69
2022/10/23 06:16:24;;;;;;;54.67;28.75;;;;;;;12.36;100.00;100425.88;1739434;81;25482;-69
2022/10/23 06:18:53;;;;;;;54.27;28.32;;;;;;;12.36;100.00;100425.88;1742985;81;25548;-69
2022/10/23 06:21:20;;;;;;;49.25;27.50;;;;;;;12.36;100.00;100416.92;1746699;81;25542;-69
2022/10/23 06:23:48;;;;;;;55.98;28.50;;;;;;;12.37;100.00;100419.32;1732114;82;25532;-69
2022/10/23 06:26:18;;;;;;;54.98;29.18;;;;;;;12.39;100.00;100421.72;1731346;81;28288;-69
2022/10/23 06:28:45;;;;;;;52.38;27.80;;;;;;;12.40;100.00;100426.04;1750588;81;25324;-70
2022/10/23 06:31:15;;;;;;;57.93;27.25;;;;;;;12.41;100.00;100431.15;1734100;82;25325;-70
2022/10/23 06:33:42;;;;;;;;;;;;;;;12.43;100.00;100434.34;1746759;82;25405;-71
2022/10/23 06:36:09;;;;;;;57.73;29.50;;;;;;;12.45;100.00;100437.53;1756195;81;25464;-69
2022/10/23 06:38:39;;;;;;;56.20;28.42;;;;;;;12.43;100.00;100434.88;1759298;81;27334;-68
2022/10/23 06:41:21;;;;;;;56.58;30.30;;;;;;;12.43;100.00;100439.77;1756957;81;25596;-68
2022/10/23 06:43:50;;;;;;;53.85;30.32;;;;;;;12.44;100.00;100439.98;1753374;81;25538;-67
2022/10/23 06:46:18;;;;;;;;;;;;;;;12.44;100.00;100445.41;1756379;80;26230;-68
2022/10/23 06:48:46;;;;;;;53.30;29.00;;;;;;;12.45;100.00;100447.59;1757354;81;25526;-67
2022/10/23 06:51:16;;;;;;;62.23;31.35;;;;;;;12.44;100.00;100452.77;1747831;82;29579;-67
2022/10/23 06:53:45;;;;;;;58.35;30.57;;;;;;;12.45;100.00;100451.66;1727350;82;27274;-67
2022/10/23 06:56:12;;;;;;;57.03;30.75;;;;;;;12.45;100.00;100457.08;1744032;81;25453;-67
2022/10/23 06:58:40;;;;;;;56.83;31.42;;;;;;;12.43;100.00;100463.36;1747407;81;25538;-68
2022/10/23 07:01:11;;;;;;;55.12;30.35;;;;;;;12.40;100.00;100471.59;1750872;81;25495;-68
2022/10/23 07:03:39;;;;;;;54.42;30.05;;;;;;;12.37;100.00;100471.42;1752501;81;27891;-69
2022/10/23 07:06:09;;;;;;;55.90;28.77;;;;;;;12.35;100.00;100472.30;1754675;81;25457;-68
2022/10/23 07:08:38;;;;;;;68.20;33.60;;;;;;;12.34;100.00;100468.77;1753498;81;25512;-68
2022/10/23 07:11:11;;;;;;;59.73;32.03;;;;;;;12.38;100.00;100467.58;1753677;81;25794;-68
2022/10/23 07:13:39;;;;;;;52.58;28.67;;;;;;;12.40;100.00;100474.30;1747877;82;25483;-69
2022/10/23 07:16:20;;;;;;;54.15;29.70;;;;;;;12.44;100.00;100483.39;1730473;82;27464;-70
2022/10/23 07:18:51;;;;;;;52.80;27.85;;;;;;;12.47;100.00;100486.05;1720208;82;25526;-68
2022/10/23 07:21:19;;;;;;;50.33;26.85;;;;;;;12.49;100.00;100483.80;1725976;82;25489;-69
2022/10/23 07:23:46;;;;;;;47.23;27.02;;;;;;;12.51;100.00;100479.67;1713139;82;25463;-68
2022/10/23 07:26:15;;;;;;;53.75;28.20;;;;;;;12.52;100.00;100475.03;1757012;81;25520;-68
2022/10/23 07:28:47;;;;;;;48.17;27.58;;;;;;;12.56;100.00;100475.98;1749955;81;27326;-69
2022/10/23 07:31:16;;;;;;;57.70;26.70;;;;;;;12.63;100.00;100475.52;1752801;81;26107;-70
2022/10/23 07:33:48;;;;;;;50.48;26.75;;;;;;;12.74;100.00;100482.24;1761319;81;25261;-69
2022/10/23 07:36:19;;;;;;;41.23;25.02;;;;;;;12.78;100.00;100476.97;1735442;81;26171;-69
2022/10/23 07:38:47;;;;;;;46.65;25.08;;;;;;;12.88;100.00;100480.72;1760133;81;25544;-69
2022/10/23 07:41:16;;;;;;;49.33;26.27;;;;;;;12.95;100.00;100481.60;1751871;81;27246;-69
2022/10/23 07:43:46;;;;;;;55.10;28.10;;;;;;;13.05;100.00;100489.42;1758641;81;25349;-69
2022/10/23 07:46:14;;;;;;;48.60;22.52;;;;;;;13.13;100.00;100486.45;1715374;81;25238;-69
2022/10/23 07:48:45;;;;;;;43.00;22.45;;;;;;;13.20;100.00;100483.50;1748337;81;25517;-69
2022/10/23 07:51:18;;;;;;;35.90;20.50;;;;;;;13.22;100.00;100488.61;1741468;82;25567;-69
2022/10/23 07:53:46;;;;;;;35.35;19.75;;;;;;;13.22;100.00;100483.96;1719420;81;28072;-68
2022/10/23 07:56:23;;;;;;;39.75;21.27;;;;;;;13.24;100.00;100474.92;1745393;81;25540;-69
2022/10/23 07:58:54;;;;;;;34.75;19.87;;;;;;;13.23;100.00;100480.70;1748532;82;25342;-70
2022/10/23 08:01:36;;;;;;;39.60;19.75;;;;;;;13.23;100.00;100473.34;1743568;81;25451;-69
2022/10/23 08:04:05;;;;;;;36.20;19.62;;;;;;;13.27;100.00;100470.78;1758519;81;25460;-69
2022/10/23 08:06:34;;;;;;;38.85;21.00;;;;;;;13.34;100.00;100468.97;1742416;80;27438;-70
2022/10/23 08:09:03;;;;;;;38.53;20.15;;;;;;;13.42;100.00;100477.66;1748219;81;25587;-70
2022/10/23 08:11:34;;;;;;;38.60;20.25;;;;;;;13.47;100.00;100473.41;1754188;81;25223;-70
2022/10/23 08:14:03;;;;;;;35.43;21.07;;;;;;;13.52;100.00;100471.88;1730610;82;25562;-69
2022/10/23 08:16:38;;;;;;;35.05;18.67;;;;;;;13.58;100.00;100465.70;1744927;82;25312;-70
2022/10/23 08:19:07;;;;;;;35.83;19.10;;;;;;;13.61;100.00;100468.56;1734380;81;27348;-69
2022/10/23 08:21:36;;;;;;;30.40;20.00;;;;;;;13.63;100.00;100475.82;1762477;81;31281;-69
2022/10/23 08:24:06;;;;;;;34.23;19.07;;;;;;;13.64;99.49;100465.77;1739312;81;25540;-69
2022/10/23 08:26:33;;;;;;;34.73;19.05;;;;;;;13.67;99.57;100454.80;1761073;81;25535;-69
2022/10/23 08:29:01;;;;;;;37.03;19.80;;;;;;;13.96;100.00;100465.72;1761390;81;25370;-68
2022/10/23 08:31:28;;;;;;;35.90;20.05;;;;;;;14.11;100.00;100471.14;1736733;82;27328;-68
2022/10/23 08:33:56;;;;;;;34.67;18.98;;;;;;;14.13;100.00;100472.17;1728088;82;27490;-68
2022/10/23 08:36:27;;;;;;;39.20;20.17;;;;;;;14.15;99.77;100472.09;1738281;81;25492;-68
2022/10/23 08:38:56;;;;;;;34.40;19.00;;;;;;;14.20;99.62;100460.23;1709319;82;25588;-68
2022/10/23 08:41:49;;;;;;;30.75;19.62;;;;;;;14.20;98.40;100475.20;1724309;82;25628;-68
2022/10/23 08:44:22;;;;;;;38.35;21.35;;;;;;;14.22;98.59;100478.92;1729000;81;27346;-67
2022/10/23 08:47:01;;;;;;;34.85;19.82;;;;;;;14.26;98.86;100473.08;1735164;80;26057;-69
2022/10/23 08:49:46;;;;;;;32.28;19.45;;;;;;;14.27;98.13;100480.91;1706505;81;25748;-68
2022/10/23 08:52:28;;;;;;;40.43;20.95;;;;;;;14.22;96.95;100483.82;1737438;80;25609;-68
2022/10/23 08:55:13;;;;;;;35.58;19.23;;;;;;;14.16;96.37;100488.63;1724031;82;25343;-67
2022/10/23 08:57:46;;;;;;;34.38;19.35;;;;;;;14.10;96.70;100488.59;1688425;83;27834;-68
2022/10/23 09:00:16;;;;;;;40.78;20.27;;;;;;;14.08;96.65;100500.38;1682931;83;25601;-70
2022/10/23 09:02:52;;;;;;;35.20;19.25;;;;;;;14.07;97.02;100496.05;1700836;83;25629;-70
2022/10/23 09:05:30;;;;;;;34.33;20.70;;;;;;;14.05;97.06;100488.78;1669580;84;25676;-69
2022/10/23 09:08:30;;;;;;;38.42;21.62;;;;;;;14.07;97.42;100494.69;1679855;85;25622;-69
2022/10/23 09:11:22;;;;;;;;;;;;;;;14.07;97.17;100491.97;1681662;85;27490;-70
2022/10/23 09:14:28;;;;;;;32.60;20.10;;;;;;;14.05;96.61;100494.80;1672168;85;25557;-66
2022/10/23 09:17:25;;;;;;;37.88;20.85;;;;;;;13.97;96.61;100490.41;1641361;86;25626;-70
2022/10/23 09:20:17;;;;;;;38.35;20.68;;;;;;;13.96;97.09;100490.19;1627180;86;26105;-69
2022/10/23 09:22:47;;;;;;;36.15;20.57;;;;;;;13.94;96.66;100494.34;1614430;87;25764;-69
2022/10/23 09:25:22;;;;;;;36.15;21.23;;;;;;;13.89;96.50;100487.73;1644223;86;27349;-69
2022/10/23 09:27:53;;;;;;;33.65;20.23;;;;;;;13.89;97.05;100489.09;1691060;84;25929;-72
2022/10/23 09:30:40;;;;;;;43.20;21.42;;;;;;;13.90;97.21;100488.77;1698532;83;25651;-72
2022/10/23 09:33:18;;;;;;;36.93;21.95;;;;;;;13.91;97.45;100486.30;1704453;83;25552;-71
2022/10/23 09:35:59;;;;;;;37.58;21.97;;;;;;;13.94;97.49;100491.63;1720425;83;25677;-73
2022/10/23 09:38:35;;;;;;;40.73;23.38;;;;;;;13.98;97.96;100492.59;1720489;83;28141;-72
2022/10/23 09:41:16;;;;;;;42.90;24.15;;;;;;;14.01;98.21;100492.73;1700368;83;25597;-72
2022/10/23 09:43:44;;;;;;;36.75;20.92;;;;;;;14.05;97.80;100495.59;1714699;83;25644;-72
2022/10/23 09:46:13;;;;;;;35.17;20.00;;;;;;;14.07;97.55;100489.25;1711094;83;25757;-73
2022/10/23 09:48:43;;;;;;;35.70;20.77;;;;;;;14.10;97.57;100493.25;1683924;83;25703;-73
2022/10/23 09:51:20;;;;;;;30.62;20.40;;;;;;;14.18;98.11;100495.92;1699399;83;27340;-74
2022/10/23 09:53:59;;;;;;;35.15;20.15;;;;;;;14.21;97.72;100490.38;1698881;82;25554;-73
2022/10/23 09:56:38;;;;;;;32.35;19.75;;;;;;;14.29;97.88;100490.89;1695850;83;25713;-72
2022/10/23 09:59:14;;;;;;;32.00;19.47;;;;;;;14.34;97.83;100488.55;1696633;83;26021;-70
2022/10/23 10:01:54;;;;;;;31.65;18.98;;;;;;;14.36;97.25;100495.25;1705194;82;25645;-71
2022/10/23 10:04:35;;;;;;;33.88;17.52;;;;;;;14.35;96.91;100483.33;1710377;82;27869;-72
2022/10/23 10:07:13;;;;;;;27.90;17.40;;;;;;;14.37;97.00;100483.25;1706354;82;25892;-70
2022/10/23 10:09:42;;;;;;;27.87;18.00;;;;;;;14.41;97.37;100475.22;1689456;84;25790;-70
2022/10/23 10:12:49;;;;;;;29.37;17.70;;;;;;;14.46;97.86;100473.66;1704787;82;26032;-71
2022/10/23 10:15:36;;;;;;;25.97;17.07;;;;;;;14.51;97.55;100473.47;1685444;84;25627;-70
2022/10/23 10:18:12;;;;;;;27.45;16.67;;;;;;;14.55;97.28;100475.75;1687290;84;27497;-71
2022/10/23 10:20:54;;;;;;;28.35;17.60;;;;;;;14.56;96.86;100473.27;1681373;84;25682;-72
2022/10/23 10:23:42;;;;;;;29.67;17.87;;;;;;;14.57;96.68;100476.78;1684463;84;25517;-70
2022/10/23 10:26:44;;;;;;;24.25;16.48;;;;;;;14.56;96.64;100480.65;1674664;84;26160;-72
2022/10/23 10:29:32;;;;;;;29.50;17.95;;;;;;;14.57;96.56;100469.98;1669794;84;25585;-72
2022/10/23 10:32:36;;;;;;;33.48;17.62;;;;;;;14.62;96.96;100471.74;1685440;84;27987;-65
2022/10/23 10:35:24;;;;;;;25.92;16.45;;;;;;;14.65;97.22;100471.88;1667564;84;27317;-67
2022/10/23 10:38:15;;;;;;;30.68;17.52;;;;;;;14.69;97.08;100472.82;1661209;83;26157;-67
2022/10/23 10:41:07;;;;;;;32.10;17.50;;;;;;;14.74;97.03;100482.69;1663917;84;25772;-66
2022/10/23 10:43:52;;;;;;;26.15;17.02;;;;;;;14.78;96.79;100477.37;1657729;83;25633;-70
2022/10/23 10:46:52;;;;;;;28.65;17.20;;;;;;;14.78;96.00;100479.55;1637956;85;27393;-71
2022/10/23 10:49:42;;;;;;;27.67;15.13;;;;;;;14.77;95.69;100474.44;1659316;84;25615;-70
2022/10/23 10:52:33;;;;;;;24.47;16.55;;;;;;;14.75;95.73;100464.66;1664293;84;25581;-69
2022/10/23 10:55:25;;;;;;;28.92;16.40;;;;;;;14.79;95.89;100462.64;1667195;83;25581;-71
2022/10/23 10:58:14;;;;;;;30.82;17.00;;;;;;;14.79;95.72;100465.37;1660877;84;25536;-71
2022/10/23 11:00:45;;;;;;;29.82;17.23;;;;;;;14.79;95.74;100459.92;1652697;84;27386;-70
2022/10/23 11:03:35;;;;;;;32.23;19.40;;;;;;;14.77;95.59;100457.53;1657779;83;25637;-71
2022/10/23 11:06:05;;;;;;;32.60;17.32;;;;;;;14.74;95.44;100455.47;1687999;84;26040;-69
2022/10/23 11:08:40;;;;;;;31.15;18.55;;;;;;;14.72;95.50;100459.09;1687985;83;26016;-67
2022/10/23 11:11:19;;;;;;;29.67;17.65;;;;;;;14.69;95.83;100456.48;1698643;84;25526;-69
2022/10/23 11:13:49;;;;;;;28.40;16.33;;;;;;;14.71;95.92;100456.12;1724270;82;27396;-72
2022/10/23 11:16:34;;;;;;;25.88;14.73;;;;;;;14.70;95.86;100447.74;1719783;81;25551;-71
2022/10/23 11:19:12;;;;;;;23.42;14.75;;;;;;;14.69;96.00;100438.79;1726275;82;25608;-71
2022/10/23 11:22:05;;;;;;;21.82;14.10;;;;;;;14.71;96.70;100437.89;1729330;81;26189;-72
2022/10/23 11:24:57;;;;;;;26.62;14.47;;;;;;;14.74;96.81;100441.31;1731469;81;25577;-72
2022/10/23 11:27:47;;;;;;;26.85;13.75;;;;;;;14.80;96.61;100435.66;1712810;82;27407;-71
2022/10/23 11:30:26;;;;;;;27.98;13.35;;;;;;;14.83;97.02;100443.95;1709114;82;25654;-70
2022/10/23 11:33:19;;;;;;;22.35;12.18;;;;;;;14.83;96.24;100441.23;1686102;83;25609;-72
2022/10/23 11:36:06;;;;;;;22.02;11.75;;;;;;;14.83;95.99;100448.03;1687115;83;25590;-71